Time;durP1;ratioP1;P1;durP2;ratioP2;P2;SDS_P1;SDS_P2;PMS_P1;PMS_P2;Temp;Humidity;BMP_temperature;BMP_pressure;BME280_temperature;BME280_humidity;BME280_pressure;Samples;Min_cycle;Max_cycle;Signal;HPM_P1;HPM_P2
2021/09/09 00:01:42;;;;;;;13.30;11.40;;;22.50;78.30;;;;;;5055097;28;20100;-87
2021/09/09 00:04:07;;;;;;;13.40;11.38;;;22.40;78.20;;;;;;5032371;28;20111;-84
2021/09/09 00:06:33;;;;;;;14.52;12.10;;;22.40;78.40;;;;;;5072766;28;20028;-85
2021/09/09 00:08:59;;;;;;;14.50;11.57;;;22.40;78.50;;;;;;5038714;28;20032;-85
2021/09/09 00:11:26;;;;;;;15.68;11.93;;;22.40;78.70;;;;;;5052530;28;20024;-84
2021/09/09 00:13:51;;;;;;;14.80;11.27;;;22.30;78.70;;;;;;5058320;28;20119;-85
2021/09/09 00:16:17;;;;;;;15.13;12.35;;;22.30;78.80;;;;;;5058380;28;20464;-84
2021/09/09 00:18:43;;;;;;;15.75;13.15;;;22.20;78.70;;;;;;5061582;28;20020;-85
2021/09/09 00:21:09;;;;;;;14.60;11.68;;;22.20;78.90;;;;;;5065887;28;20028;-84
2021/09/09 00:23:34;;;;;;;15.23;12.95;;;22.20;79.40;;;;;;5036809;28;20040;-85
2021/09/09 00:26:03;;;;;;;17.48;13.65;;;22.10;78.90;;;;;;5031241;28;20476;-84
2021/09/09 00:28:29;;;;;;;16.23;13.45;;;22.10;79.00;;;;;;5056662;28;20035;-84
2021/09/09 00:30:55;;;;;;;14.82;12.80;;;22.10;78.90;;;;;;5066391;28;20527;-83
2021/09/09 00:33:21;;;;;;;16.40;13.45;;;22.10;79.20;;;;;;5061545;28;20119;-84
2021/09/09 00:35:46;;;;;;;15.57;12.88;;;22.00;79.10;;;;;;5055312;28;20029;-84
2021/09/09 00:38:12;;;;;;;15.65;13.05;;;22.00;79.20;;;;;;5087267;28;20103;-85
2021/09/09 00:40:38;;;;;;;16.10;13.00;;;21.90;79.40;;;;;;5079038;28;20052;-83
2021/09/09 00:43:04;;;;;;;16.35;13.10;;;21.90;79.50;;;;;;5058616;28;20078;-84
2021/09/09 00:45:29;;;;;;;16.05;13.27;;;21.80;79.60;;;;;;5074752;28;20495;-84
2021/09/09 00:47:56;;;;;;;14.65;12.90;;;21.80;79.70;;;;;;5058364;28;20111;-84
2021/09/09 00:50:21;;;;;;;15.27;13.13;;;21.80;79.80;;;;;;5075105;28;20020;-84
2021/09/09 00:52:50;;;;;;;15.88;13.32;;;21.80;79.80;;;;;;5054958;28;20544;-84
2021/09/09 00:55:16;;;;;;;16.00;12.95;;;21.70;79.80;;;;;;5054890;28;20020;-84
2021/09/09 00:57:44;;;;;;;17.35;13.30;;;21.70;80.10;;;;;;5079327;28;20107;-84
2021/09/09 01:00:11;;;;;;;15.43;13.27;;;21.70;80.10;;;;;;5093267;28;20105;-84
2021/09/09 01:02:36;;;;;;;16.60;13.20;;;21.70;80.30;;;;;;5038459;28;20029;-84
2021/09/09 01:05:02;;;;;;;16.60;13.07;;;21.60;80.20;;;;;;5065698;28;20073;-84
2021/09/09 01:07:28;;;;;;;17.40;13.63;;;21.60;80.30;;;;;;5071725;28;20032;-84
2021/09/09 01:09:56;;;;;;;15.38;13.57;;;21.50;80.10;;;;;;5063856;28;20046;-84
2021/09/09 01:12:22;;;;;;;17.00;13.38;;;21.50;80.40;;;;;;5073915;28;20043;-84
2021/09/09 01:14:50;;;;;;;16.23;13.93;;;21.50;80.40;;;;;;5025592;28;20025;-84
2021/09/09 01:17:16;;;;;;;16.48;13.65;;;21.50;80.60;;;;;;5068768;28;20073;-83
2021/09/09 01:19:42;;;;;;;16.40;12.82;;;21.40;80.60;;;;;;5054682;28;20033;-84
2021/09/09 01:22:07;;;;;;;18.67;12.93;;;21.40;80.70;;;;;;5049709;28;20040;-84
2021/09/09 01:24:33;;;;;;;17.45;12.95;;;21.40;80.80;;;;;;5041338;28;20024;-86
2021/09/09 01:27:01;;;;;;;15.75;13.32;;;21.30;80.80;;;;;;5053767;28;20036;-84
2021/09/09 01:29:31;;;;;;;16.27;13.57;;;21.30;81.00;;;;;;5069981;28;20031;-85
2021/09/09 01:31:56;;;;;;;17.25;13.32;;;21.30;81.20;;;;;;5073638;28;20051;-84
2021/09/09 01:34:23;;;;;;;14.73;13.13;;;21.30;81.20;;;;;;5063585;28;20091;-84
2021/09/09 01:36:49;;;;;;;17.08;13.25;;;21.20;81.30;;;;;;5070221;28;20081;-84
2021/09/09 01:39:15;;;;;;;16.65;13.52;;;21.20;81.30;;;;;;5053732;28;20033;-84
2021/09/09 01:41:41;;;;;;;16.10;13.90;;;21.10;81.40;;;;;;5072948;28;20056;-85
2021/09/09 01:44:07;;;;;;;15.07;13.35;;;21.10;81.40;;;;;;5053300;28;20039;-85
2021/09/09 01:46:33;;;;;;;14.88;13.27;;;21.10;81.40;;;;;;5054274;28;20381;-85
2021/09/09 01:49:00;;;;;;;16.98;13.90;;;21.00;81.60;;;;;;5058237;28;20077;-84
2021/09/09 01:51:26;;;;;;;16.30;13.55;;;21.00;81.60;;;;;;5073759;28;20028;-85
2021/09/09 01:53:53;;;;;;;18.45;14.27;;;21.00;81.70;;;;;;5056189;28;20025;-84
2021/09/09 01:56:20;;;;;;;15.60;13.00;;;21.00;81.80;;;;;;5054826;28;20021;-85
2021/09/09 01:58:45;;;;;;;16.33;13.20;;;20.90;81.90;;;;;;5053864;28;20028;-85
2021/09/09 02:01:11;;;;;;;16.52;13.77;;;20.90;82.00;;;;;;5070408;28;20366;-83
2021/09/09 02:03:37;;;;;;;15.13;13.18;;;20.90;82.20;;;;;;5088535;28;20384;-85
2021/09/09 02:06:03;;;;;;;19.92;14.48;;;20.90;82.20;;;;;;5063111;28;20489;-85
2021/09/09 02:08:29;;;;;;;16.65;13.27;;;20.80;82.20;;;;;;5049373;28;20158;-87
2021/09/09 02:10:55;;;;;;;18.13;14.88;;;20.80;82.20;;;;;;5054181;28;20028;-85
2021/09/09 02:13:21;;;;;;;16.30;13.15;;;20.80;82.90;;;;;;5066601;28;20404;-85
2021/09/09 02:15:46;;;;;;;16.58;14.18;;;20.70;82.40;;;;;;5095151;28;20109;-84
2021/09/09 02:18:12;;;;;;;16.25;13.32;;;20.70;82.40;;;;;;5057056;28;20483;-83
2021/09/09 02:20:38;;;;;;;15.55;13.15;;;20.70;82.50;;;;;;5043850;28;20032;-84
2021/09/09 02:23:03;;;;;;;16.08;14.38;;;20.70;82.60;;;;;;5075503;28;20029;-84
2021/09/09 02:25:29;;;;;;;16.20;13.55;;;20.60;82.60;;;;;;5057008;28;20074;-84
2021/09/09 02:27:55;;;;;;;16.33;13.88;;;20.60;82.80;;;;;;5054454;28;20058;-85
2021/09/09 02:30:21;;;;;;;15.82;13.55;;;20.50;82.90;;;;;;5047229;28;20032;-84
2021/09/09 02:32:47;;;;;;;16.70;13.48;;;20.50;82.90;;;;;;5076182;28;20456;-85
2021/09/09 02:35:13;;;;;;;17.25;14.50;;;20.50;82.90;;;;;;5049427;28;20036;-84
2021/09/09 02:37:40;;;;;;;18.15;14.82;;;20.50;83.10;;;;;;5068397;28;20031;-86
2021/09/09 02:40:07;;;;;;;17.58;13.98;;;20.40;83.10;;;;;;5105283;28;20039;-90
2021/09/09 02:42:33;;;;;;;18.73;14.60;;;20.40;83.20;;;;;;5063984;28;20063;-84
2021/09/09 02:44:58;;;;;;;17.17;14.55;;;20.40;83.10;;;;;;5045620;28;20020;-84
2021/09/09 02:47:24;;;;;;;18.42;13.98;;;20.40;83.30;;;;;;5077762;28;20017;-85
2021/09/09 02:49:50;;;;;;;18.70;14.75;;;20.30;83.40;;;;;;5080234;28;20029;-84
2021/09/09 02:52:15;;;;;;;16.40;14.05;;;20.30;83.40;;;;;;5029512;28;20028;-85
2021/09/09 02:54:41;;;;;;;16.88;14.00;;;20.30;83.60;;;;;;5066481;28;20024;-84
2021/09/09 02:57:07;;;;;;;16.85;14.00;;;20.20;83.60;;;;;;5070508;28;20036;-84
2021/09/09 02:59:32;;;;;;;16.40;14.38;;;20.20;83.60;;;;;;5051543;28;20040;-84
2021/09/09 03:01:58;;;;;;;16.30;13.68;;;20.20;83.60;;;;;;5076056;28;20077;-85
2021/09/09 03:04:24;;;;;;;17.35;13.98;;;20.20;83.70;;;;;;5033911;28;20032;-85
2021/09/09 03:06:50;;;;;;;17.88;15.23;;;20.10;83.80;;;;;;5071654;28;20063;-84
2021/09/09 03:09:15;;;;;;;17.98;14.63;;;20.10;83.80;;;;;;5075615;28;20032;-84
2021/09/09 03:11:41;;;;;;;15.52;13.23;;;20.10;84.10;;;;;;5046255;28;20025;-84
2021/09/09 03:14:06;;;;;;;16.52;14.00;;;20.10;84.00;;;;;;5079461;28;20067;-84
2021/09/09 03:16:32;;;;;;;17.70;14.70;;;20.10;84.20;;;;;;5075820;28;20476;-84
2021/09/09 03:18:58;;;;;;;17.23;14.52;;;20.00;84.10;;;;;;5058764;28;20024;-86
2021/09/09 03:21:23;;;;;;;17.60;13.80;;;20.00;84.10;;;;;;5066698;28;20043;-85
2021/09/09 03:23:49;;;;;;;17.92;14.57;;;20.00;84.20;;;;;;5070973;28;20131;-84
2021/09/09 03:26:15;;;;;;;17.48;14.90;;;20.00;84.30;;;;;;5068549;28;20451;-84
2021/09/09 03:28:40;;;;;;;18.73;14.73;;;19.90;84.40;;;;;;5055498;28;20039;-84
2021/09/09 03:31:06;;;;;;;17.05;13.70;;;19.90;84.40;;;;;;5074854;28;20119;-85
2021/09/09 03:33:32;;;;;;;17.58;14.43;;;19.90;84.40;;;;;;5064491;28;20111;-85
2021/09/09 03:35:57;;;;;;;18.92;15.50;;;19.90;84.50;;;;;;5057969;28;20433;-91
2021/09/09 03:38:23;;;;;;;19.50;14.23;;;19.80;84.60;;;;;;5067847;28;20043;-84
2021/09/09 03:40:49;;;;;;;19.25;15.30;;;19.80;84.70;;;;;;5069406;28;20028;-89
2021/09/09 03:43:15;;;;;;;17.40;14.95;;;19.80;84.80;;;;;;5075306;28;20070;-84
2021/09/09 03:45:40;;;;;;;16.77;14.07;;;19.80;84.90;;;;;;5063472;28;20103;-85
2021/09/09 03:48:06;;;;;;;21.17;14.95;;;19.70;85.00;;;;;;5036505;28;20029;-84
2021/09/09 03:50:32;;;;;;;17.40;15.23;;;19.70;85.00;;;;;;5083263;28;20028;-85
2021/09/09 03:53:00;;;;;;;19.98;15.20;;;19.70;85.10;;;;;;5058173;28;20028;-84
2021/09/09 03:55:26;;;;;;;17.70;15.18;;;19.70;85.20;;;;;;5058771;28;20039;-84
2021/09/09 03:57:52;;;;;;;16.50;14.50;;;19.70;85.20;;;;;;5058711;28;20233;-84
2021/09/09 04:00:18;;;;;;;17.58;15.02;;;19.70;85.20;;;;;;5051971;28;20385;-86
2021/09/09 04:02:44;;;;;;;18.73;14.95;;;19.70;85.30;;;;;;5055249;28;20100;-85
2021/09/09 04:05:09;;;;;;;18.55;14.80;;;19.60;85.30;;;;;;5042844;28;20020;-84
2021/09/09 04:07:35;;;;;;;18.23;15.27;;;19.60;85.40;;;;;;5075284;28;20471;-85
2021/09/09 04:10:01;;;;;;;18.88;14.85;;;19.60;85.40;;;;;;5079070;28;20039;-87
2021/09/09 04:12:27;;;;;;;19.65;15.57;;;19.60;85.50;;;;;;5085720;28;20048;-84
2021/09/09 04:14:52;;;;;;;17.90;14.52;;;19.60;85.50;;;;;;5070610;28;20059;-84
2021/09/09 04:17:18;;;;;;;18.73;15.10;;;19.60;85.60;;;;;;5080237;28;20078;-84
2021/09/09 04:19:44;;;;;;;19.35;14.98;;;19.60;85.50;;;;;;5062169;28;20067;-84
2021/09/09 04:22:11;;;;;;;18.45;15.18;;;19.50;85.40;;;;;;5043319;28;20111;-84
2021/09/09 04:24:36;;;;;;;19.48;15.10;;;19.50;85.50;;;;;;5075718;28;20476;-85
2021/09/09 04:27:04;;;;;;;17.38;14.98;;;19.50;85.60;;;;;;5072097;28;20050;-87
2021/09/09 04:29:30;;;;;;;17.17;14.50;;;19.50;85.60;;;;;;5063622;28;20116;-84
2021/09/09 04:31:55;;;;;;;18.75;15.68;;;19.40;85.60;;;;;;5074476;28;20146;-84
2021/09/09 04:34:21;;;;;;;19.42;15.02;;;19.40;85.60;;;;;;5070083;28;20508;-85
2021/09/09 04:36:47;;;;;;;18.88;15.52;;;19.40;85.70;;;;;;5021737;28;20029;-83
2021/09/09 04:39:12;;;;;;;18.92;15.45;;;19.40;85.70;;;;;;5059063;28;20064;-85
2021/09/09 04:41:38;;;;;;;18.65;15.95;;;19.30;85.80;;;;;;5092278;28;20048;-85
2021/09/09 04:44:04;;;;;;;18.45;16.30;;;19.30;85.70;;;;;;5074157;28;20054;-84
2021/09/09 04:46:30;;;;;;;21.23;16.30;;;19.30;86.00;;;;;;5054574;28;20055;-84
2021/09/09 04:48:56;;;;;;;20.23;16.17;;;19.20;86.00;;;;;;5075019;28;20468;-85
2021/09/09 04:51:22;;;;;;;17.88;15.98;;;19.30;86.20;;;;;;5054934;28;20035;-83
2021/09/09 04:53:48;;;;;;;20.13;16.08;;;19.20;86.20;;;;;;5074433;28;20028;-84
2021/09/09 04:56:14;;;;;;;20.48;16.08;;;19.20;86.20;;;;;;5050482;28;20037;-84
2021/09/09 04:58:39;;;;;;;20.38;16.52;;;19.20;86.20;;;;;;5074600;28;20377;-85
2021/09/09 05:01:06;;;;;;;21.08;16.70;;;19.20;86.40;;;;;;5060760;28;20099;-87
2021/09/09 05:03:31;;;;;;;20.35;16.63;;;19.20;86.30;;;;;;5054594;28;20534;-84
2021/09/09 05:05:57;;;;;;;18.88;15.57;;;19.20;86.40;;;;;;5074739;28;20125;-85
2021/09/09 05:08:26;;;;;;;19.08;15.70;;;19.20;86.50;;;;;;5053599;28;20043;-85
2021/09/09 05:10:52;;;;;;;18.65;16.25;;;19.10;86.50;;;;;;5044542;28;20021;-84
2021/09/09 05:13:17;;;;;;;21.10;16.27;;;19.10;86.40;;;;;;5074751;28;20112;-83
2021/09/09 05:15:43;;;;;;;20.88;17.23;;;19.10;86.60;;;;;;5075202;28;20419;-84
2021/09/09 05:18:09;;;;;;;20.42;17.38;;;19.10;86.60;;;;;;5074433;28;20547;-85
2021/09/09 05:20:35;;;;;;;19.90;15.77;;;19.10;86.70;;;;;;5055525;28;20056;-84
2021/09/09 05:23:00;;;;;;;19.17;15.63;;;19.10;86.70;;;;;;5074432;28;20492;-85
2021/09/09 05:25:26;;;;;;;19.75;16.00;;;19.00;86.70;;;;;;5028586;28;20339;-84
2021/09/09 05:27:52;;;;;;;18.17;16.17;;;19.00;86.70;;;;;;5074634;28;20032;-84
2021/09/09 05:30:17;;;;;;;19.52;16.05;;;19.00;87.00;;;;;;5084966;28;20036;-83
2021/09/09 05:32:43;;;;;;;19.02;15.68;;;19.00;87.00;;;;;;5078263;28;20028;-84
2021/09/09 05:35:09;;;;;;;20.67;16.15;;;19.00;86.80;;;;;;5078432;28;20020;-85
2021/09/09 05:37:35;;;;;;;19.60;15.63;;;19.00;86.90;;;;;;5091986;28;20460;-85
2021/09/09 05:40:02;;;;;;;18.90;15.70;;;18.90;86.90;;;;;;5075331;28;20045;-85
2021/09/09 05:42:27;;;;;;;19.85;15.77;;;19.00;87.10;;;;;;5052703;28;20040;-86
2021/09/09 05:44:53;;;;;;;18.25;16.25;;;18.90;87.20;;;;;;5074600;28;20846;-87
2021/09/09 05:47:20;;;;;;;19.60;15.93;;;18.90;87.20;;;;;;5090898;28;20032;-84
2021/09/09 05:49:46;;;;;;;18.55;15.18;;;18.90;87.30;;;;;;5062858;28;20494;-86
2021/09/09 05:52:11;;;;;;;19.02;15.75;;;18.90;87.30;;;;;;5070605;28;20024;-87
2021/09/09 05:54:37;;;;;;;19.60;15.90;;;18.90;87.40;;;;;;5052944;28;20020;-85
2021/09/09 05:57:03;;;;;;;19.23;15.45;;;18.90;87.40;;;;;;5061281;28;20035;-84
2021/09/09 05:59:29;;;;;;;19.83;15.52;;;18.90;87.50;;;;;;5079202;28;20028;-84
2021/09/09 06:01:55;;;;;;;17.13;14.85;;;18.90;87.50;;;;;;5080361;28;20024;-84
2021/09/09 06:04:21;;;;;;;20.67;15.75;;;18.90;87.60;;;;;;5094585;28;20036;-84
2021/09/09 06:06:48;;;;;;;18.45;15.82;;;18.90;87.60;;;;;;5092680;28;20472;-90
2021/09/09 06:09:14;;;;;;;19.50;15.48;;;18.90;87.70;;;;;;5078936;28;20058;-86
2021/09/09 06:11:40;;;;;;;22.08;15.80;;;18.90;87.90;;;;;;5098138;28;20024;-87
2021/09/09 06:14:06;;;;;;;18.92;15.57;;;18.90;87.90;;;;;;5079556;28;20112;-85
2021/09/09 06:16:33;;;;;;;19.27;15.27;;;18.90;87.80;;;;;;5112281;28;20038;-87
2021/09/09 06:18:59;;;;;;;19.75;15.82;;;18.90;88.00;;;;;;5114541;28;20069;-88
2021/09/09 06:21:25;;;;;;;18.30;15.20;;;18.90;88.00;;;;;;5107721;28;20023;-89
2021/09/09 06:23:51;;;;;;;19.02;15.98;;;18.90;88.00;;;;;;5065911;28;20024;-91
2021/09/09 06:26:18;;;;;;;18.77;15.57;;;19.00;88.20;;;;;;5066192;28;20537;-86
2021/09/09 06:28:43;;;;;;;19.35;15.70;;;18.90;88.20;;;;;;5109559;28;20087;-89
2021/09/09 06:31:09;;;;;;;19.35;16.17;;;19.00;88.30;;;;;;5101967;28;20020;-88
2021/09/09 06:33:49;;;;;;;18.52;16.13;;;19.00;88.30;;;;;;5087300;28;20028;-82
2021/09/09 06:36:15;;;;;;;18.20;14.70;;;19.00;88.60;;;;;;5046052;28;20480;-86
2021/09/09 06:38:41;;;;;;;26.60;16.73;;;19.00;88.40;;;;;;5060260;28;20538;-86
2021/09/09 06:41:07;;;;;;;20.27;15.95;;;19.00;88.30;;;;;;5074076;28;20086;-86
2021/09/09 06:43:33;;;;;;;18.77;15.70;;;19.00;88.30;;;;;;5077637;28;20044;-86
2021/09/09 06:45:59;;;;;;;20.15;15.32;;;19.10;88.40;;;;;;5062895;28;20369;-86
2021/09/09 06:48:25;;;;;;;18.42;15.48;;;19.10;88.40;;;;;;5064488;28;20081;-85
2021/09/09 06:50:51;;;;;;;20.83;16.50;;;19.10;88.40;;;;;;5088678;28;20024;-87
2021/09/09 06:53:16;;;;;;;19.23;14.57;;;19.10;88.60;;;;;;5072799;28;20149;-85
2021/09/09 06:55:42;;;;;;;19.05;15.90;;;19.10;88.60;;;;;;5028158;28;20032;-87
2021/09/09 06:58:08;;;;;;;17.20;14.57;;;19.10;88.50;;;;;;5069497;28;20059;-84
2021/09/09 07:00:33;;;;;;;17.77;14.82;;;19.20;88.50;;;;;;5060177;28;20051;-84
2021/09/09 07:02:59;;;;;;;20.00;15.10;;;19.20;88.40;;;;;;5057361;28;20032;-84
2021/09/09 07:05:24;;;;;;;18.30;15.20;;;19.20;88.50;;;;;;5061159;28;20145;-86
2021/09/09 07:07:50;;;;;;;17.73;15.00;;;19.20;88.50;;;;;;5057354;28;20025;-84
2021/09/09 07:10:18;;;;;;;18.08;15.52;;;19.20;88.60;;;;;;5061436;28;20047;-85
2021/09/09 07:12:43;;;;;;;19.65;14.60;;;19.30;88.70;;;;;;5072848;28;20023;-85
2021/09/09 07:15:09;;;;;;;15.32;13.68;;;19.30;88.40;;;;;;5054580;28;20091;-85
2021/09/09 07:17:36;;;;;;;16.92;14.43;;;19.30;88.50;;;;;;5091372;28;20032;-85
2021/09/09 07:20:03;;;;;;;17.92;14.80;;;19.40;88.60;;;;;;5042543;28;20066;-86
2021/09/09 07:22:28;;;;;;;19.02;15.40;;;19.30;88.50;;;;;;5077630;28;20024;-85
2021/09/09 07:24:54;;;;;;;22.35;16.45;;;19.40;88.50;;;;;;5059130;28;20165;-85
2021/09/09 07:27:20;;;;;;;18.80;15.32;;;19.40;88.40;;;;;;5043307;28;20052;-86
2021/09/09 07:29:45;;;;;;;20.83;16.95;;;19.40;88.30;;;;;;5061565;28;20107;-87
2021/09/09 07:32:11;;;;;;;20.17;16.05;;;19.50;88.40;;;;;;5057328;28;20052;-83
2021/09/09 07:34:36;;;;;;;20.25;17.70;;;19.50;88.60;;;;;;5057508;28;20029;-83
2021/09/09 07:37:02;;;;;;;17.50;14.52;;;19.50;88.90;;;;;;5031274;28;20040;-83
2021/09/09 07:39:28;;;;;;;17.25;14.40;;;19.50;88.80;;;;;;5062398;28;20028;-83
2021/09/09 07:41:54;;;;;;;15.50;13.65;;;19.60;88.90;;;;;;5048685;28;20060;-83
2021/09/09 07:44:19;;;;;;;20.20;16.48;;;19.60;89.10;;;;;;5038573;28;20079;-81
2021/09/09 07:46:45;;;;;;;17.42;15.18;;;19.60;89.70;;;;;;5074498;28;20383;-82
2021/09/09 07:49:15;;;;;;;16.80;14.13;;;19.70;89.40;;;;;;5075410;28;20028;-81
2021/09/09 07:51:41;;;;;;;18.02;14.15;;;19.80;89.20;;;;;;5041370;28;20333;-81
2021/09/09 07:54:06;;;;;;;16.02;13.35;;;19.80;88.90;;;;;;5048409;28;20374;-81
2021/09/09 07:56:32;;;;;;;16.08;13.80;;;19.90;88.80;;;;;;5056750;28;20020;-81
2021/09/09 07:58:58;;;;;;;14.23;12.68;;;19.90;89.00;;;;;;5056347;28;20032;-81
2021/09/09 08:01:23;;;;;;;17.83;13.23;;;20.00;88.70;;;;;;5056890;28;20531;-81
2021/09/09 08:03:49;;;;;;;15.57;12.77;;;20.00;88.70;;;;;;5083225;28;20040;-85
2021/09/09 08:06:15;;;;;;;15.38;13.30;;;20.10;88.60;;;;;;5072752;28;20024;-83
2021/09/09 08:08:41;;;;;;;13.50;12.05;;;20.20;88.20;;;;;;5072617;28;20028;-86
2021/09/09 08:11:08;;;;;;;14.55;12.45;;;20.20;88.00;;;;;;5075059;28;20012;-87
2021/09/09 08:13:34;;;;;;;16.85;12.80;;;20.30;87.80;;;;;;5077571;28;20032;-85
2021/09/09 08:16:00;;;;;;;14.38;11.38;;;20.30;87.60;;;;;;5057849;28;20116;-85
2021/09/09 08:18:26;;;;;;;14.02;11.68;;;20.40;87.50;;;;;;5056019;28;20102;-86
2021/09/09 08:20:54;;;;;;;13.75;11.40;;;20.50;87.40;;;;;;5059226;28;20447;-87
2021/09/09 08:23:20;;;;;;;13.20;11.07;;;20.60;87.40;;;;;;5063894;28;20104;-86
2021/09/09 08:25:46;;;;;;;13.85;11.23;;;20.60;87.20;;;;;;5073986;28;20027;-86
2021/09/09 08:28:12;;;;;;;13.82;10.65;;;20.70;87.20;;;;;;5035055;28;20029;-85
2021/09/09 08:30:38;;;;;;;13.52;11.05;;;20.80;87.30;;;;;;5051796;28;20066;-86
2021/09/09 08:33:03;;;;;;;12.77;10.98;;;20.80;87.20;;;;;;5052244;28;20028;-86
2021/09/09 08:35:29;;;;;;;13.07;10.02;;;20.90;87.70;;;;;;5068619;28;20540;-86
2021/09/09 08:37:55;;;;;;;11.35;9.45;;;21.00;87.00;;;;;;5038936;28;20438;-84
2021/09/09 08:40:22;;;;;;;11.82;9.60;;;21.00;86.90;;;;;;5055965;28;20039;-86
2021/09/09 08:42:48;;;;;;;13.07;9.57;;;21.10;87.00;;;;;;5069562;28;20098;-87
2021/09/09 08:45:14;;;;;;;12.00;9.35;;;21.20;86.90;;;;;;5028564;28;20127;-85
2021/09/09 08:47:42;;;;;;;12.13;9.35;;;21.20;86.70;;;;;;5087897;28;20024;-86
2021/09/09 08:50:09;;;;;;;11.50;9.18;;;21.30;86.60;;;;;;5055365;28;20453;-85
2021/09/09 08:52:36;;;;;;;12.07;9.68;;;21.40;86.60;;;;;;5032671;28;20115;-85
2021/09/09 08:55:03;;;;;;;10.70;8.95;;;21.50;86.50;;;;;;5055096;28;20451;-85
2021/09/09 08:57:32;;;;;;;11.52;9.07;;;21.60;86.40;;;;;;5074732;28;20020;-85
2021/09/09 09:00:02;;;;;;;14.50;8.90;;;21.70;86.20;;;;;;5039742;28;20028;-85
2021/09/09 09:02:28;;;;;;;10.63;8.95;;;21.80;85.90;;;;;;5089804;28;20033;-88
2021/09/09 09:05:10;;;;;;;12.57;8.35;;;21.80;85.60;;;;;;5050372;28;20058;-84
2021/09/09 09:07:36;;;;;;;12.23;9.45;;;21.90;85.60;;;;;;5089981;28;20095;-85
2021/09/09 09:10:09;;;;;;;10.80;8.65;;;22.00;85.60;;;;;;5074912;28;20056;-86
2021/09/09 09:12:49;;;;;;;10.65;8.38;;;22.10;85.40;;;;;;5089801;28;20024;-88
2021/09/09 09:15:22;;;;;;;10.60;8.57;;;22.20;85.20;;;;;;5061404;28;20469;-88
2021/09/09 09:18:08;;;;;;;12.10;8.77;;;22.30;85.10;;;;;;5091112;28;20034;-85
2021/09/09 09:20:38;;;;;;;12.25;8.85;;;22.40;84.90;;;;;;5094150;28;20032;-86
2021/09/09 09:23:18;;;;;;;11.10;8.32;;;22.40;84.40;;;;;;5064385;28;20068;-86
2021/09/09 09:25:59;;;;;;;11.90;8.65;;;22.60;84.30;;;;;;5081838;28;20048;-86
2021/09/09 09:28:43;;;;;;;12.63;9.20;;;22.70;83.80;;;;;;5071476;28;20027;-87
2021/09/09 09:31:19;;;;;;;12.60;9.70;;;22.70;83.10;;;;;;5064039;28;20016;-86
2021/09/09 09:33:46;;;;;;;12.13;9.18;;;22.80;82.80;;;;;;5064214;28;20035;-86
2021/09/09 09:36:19;;;;;;;9.85;7.90;;;22.90;82.40;;;;;;5068597;28;20101;-84
2021/09/09 09:38:45;;;;;;;10.23;8.27;;;23.00;82.30;;;;;;5086212;28;20024;-90
2021/09/09 09:41:11;;;;;;;10.52;7.50;;;23.10;82.10;;;;;;5067412;28;20060;-86
2021/09/09 09:43:48;;;;;;;9.60;7.53;;;23.20;81.30;;;;;;5069773;28;20028;-87
2021/09/09 09:46:23;;;;;;;13.85;7.00;;;23.30;81.30;;;;;;5090349;28;20078;-85
2021/09/09 09:48:49;;;;;;;10.00;7.20;;;23.40;81.40;;;;;;5078651;28;20028;-83
2021/09/09 09:51:25;;;;;;;9.52;7.72;;;23.50;81.30;;;;;;5093298;28;20487;-83
2021/09/09 09:54:09;;;;;;;9.80;7.53;;;23.50;81.30;;;;;;5076678;28;20527;-83
2021/09/09 09:56:35;;;;;;;10.63;7.40;;;23.60;81.30;;;;;;5060431;28;20016;-83
2021/09/09 09:59:01;;;;;;;9.55;7.15;;;23.70;80.90;;;;;;5053106;28;20020;-84
2021/09/09 10:01:28;;;;;;;10.98;7.57;;;23.70;80.70;;;;;;5091040;28;20021;-84
2021/09/09 10:03:56;;;;;;;11.90;8.65;;;23.80;80.50;;;;;;5078445;28;20086;-84
2021/09/09 10:06:23;;;;;;;9.98;7.65;;;23.90;80.40;;;;;;5110257;28;20012;-86
2021/09/09 10:08:49;;;;;;;10.40;8.20;;;23.90;80.40;;;;;;5108211;28;20074;-87
2021/09/09 10:11:15;;;;;;;10.57;7.85;;;24.00;80.50;;;;;;5075745;28;20005;-85
2021/09/09 10:13:41;;;;;;;10.52;8.13;;;24.10;80.50;;;;;;5073027;28;20035;-84
2021/09/09 10:16:08;;;;;;;10.07;8.38;;;24.20;80.40;;;;;;5086592;28;20016;-84
2021/09/09 10:18:35;;;;;;;14.77;8.68;;;24.30;80.00;;;;;;5055816;28;20472;-86
2021/09/09 10:21:02;;;;;;;9.25;7.93;;;24.30;79.80;;;;;;5051747;28;20021;-82
2021/09/09 10:23:28;;;;;;;13.65;8.63;;;24.40;79.30;;;;;;5074426;28;20036;-81
2021/09/09 10:25:59;;;;;;;11.18;8.02;;;24.50;79.00;;;;;;5073466;28;20170;-80
2021/09/09 10:28:34;;;;;;;9.32;8.25;;;24.60;78.40;;;;;;5072052;28;20380;-82
2021/09/09 10:31:10;;;;;;;12.35;8.88;;;24.70;78.20;;;;;;5072923;28;20074;-81
2021/09/09 10:33:41;;;;;;;11.88;9.18;;;24.80;77.90;;;;;;5081561;28;20082;-81
2021/09/09 10:36:38;;;;;;;12.70;9.65;;;24.80;77.50;;;;;;5092474;28;20020;-81
2021/09/09 10:39:06;;;;;;;12.48;8.95;;;24.90;77.90;;;;;;5067422;28;20024;-82
2021/09/09 10:41:31;;;;;;;12.70;9.05;;;25.00;77.80;;;;;;5065389;28;20052;-81
2021/09/09 10:43:59;;;;;;;13.82;10.50;;;25.10;78.00;;;;;;5073066;28;20044;-85
2021/09/09 10:46:38;;;;;;;11.95;9.55;;;25.10;77.30;;;;;;5068591;28;20117;-85
2021/09/09 10:49:06;;;;;;;13.05;10.32;;;25.30;77.20;;;;;;5072663;28;20525;-86
2021/09/09 10:51:31;;;;;;;12.98;10.15;;;25.30;77.20;;;;;;5070957;28;20020;-86
2021/09/09 10:53:58;;;;;;;13.65;10.00;;;25.40;77.10;;;;;;5070364;28;20028;-94
2021/09/09 10:56:36;;;;;;;13.25;9.80;;;25.50;76.70;;;;;;5076602;28;20107;-95
2021/09/09 10:59:09;;;;;;;13.90;10.98;;;25.60;76.80;;;;;;5078227;28;20028;-93
2021/09/09 11:01:46;;;;;;;13.15;10.00;;;25.70;76.10;;;;;;5074862;28;20020;-95
2021/09/09 11:04:37;;;;;;;11.38;9.52;;;25.80;76.10;;;;;;5050415;28;20056;-91
2021/09/09 11:07:22;;;;;;;10.63;9.13;;;25.90;76.60;;;;;;5075916;28;20033;-89
2021/09/09 11:10:14;;;;;;;8.38;6.90;;;26.00;76.50;;;;;;5075830;28;20026;-96
2021/09/09 11:12:41;;;;;;;11.63;8.82;;;26.00;76.70;;;;;;5080279;28;20070;-93
2021/09/09 11:15:13;;;;;;;11.18;8.32;;;26.10;76.10;;;;;;5039054;28;20043;-94
2021/09/09 11:17:39;;;;;;;10.27;7.95;;;26.20;75.80;;;;;;5071509;28;20028;-82
2021/09/09 11:20:10;;;;;;;9.27;8.20;;;26.30;75.50;;;;;;5093073;28;20036;-82
2021/09/09 11:22:37;;;;;;;9.57;8.45;;;26.40;75.00;;;;;;5075671;28;20086;-81
2021/09/09 11:25:04;;;;;;;11.32;8.82;;;26.50;75.00;;;;;;5091865;28;20123;-80
2021/09/09 11:27:34;;;;;;;11.43;8.60;;;26.50;74.60;;;;;;5067675;28;20027;-83
2021/09/09 11:30:02;;;;;;;8.68;7.60;;;26.60;74.50;;;;;;5051018;28;20477;-82
2021/09/09 11:32:30;;;;;;;13.63;9.32;;;26.70;74.90;;;;;;5075444;28;20020;-83
2021/09/09 11:35:07;;;;;;;11.88;9.35;;;26.80;75.30;;;;;;5094472;28;20028;-82
2021/09/09 11:37:42;;;;;;;12.80;11.15;;;26.90;75.00;;;;;;5062435;28;20027;-81
2021/09/09 11:40:08;;;;;;;12.45;10.98;;;27.00;75.10;;;;;;5064742;28;20020;-84
2021/09/09 11:42:34;;;;;;;15.93;11.40;;;27.10;75.00;;;;;;5054775;28;20059;-83
2021/09/09 11:45:02;;;;;;;17.80;11.77;;;27.10;74.10;;;;;;5058860;28;20032;-80
2021/09/09 11:47:27;;;;;;;14.73;11.70;;;27.20;73.80;;;;;;5064591;28;20040;-84
2021/09/09 11:50:04;;;;;;;13.43;11.63;;;27.30;73.90;;;;;;5064187;28;20024;-83
2021/09/09 11:52:30;;;;;;;13.95;11.32;;;27.40;74.10;;;;;;5076183;28;20046;-84
2021/09/09 11:54:56;;;;;;;12.02;10.40;;;27.40;73.90;;;;;;5058802;28;20029;-83
2021/09/09 11:57:22;;;;;;;15.90;13.70;;;27.50;74.00;;;;;;5089818;28;20030;-89
2021/09/09 11:59:50;;;;;;;13.82;10.45;;;27.50;73.40;;;;;;5058273;28;20106;-89
2021/09/09 12:02:38;;;;;;;13.75;10.38;;;27.50;73.60;;;;;;5099635;28;20024;-90
2021/09/09 12:05:08;;;;;;;15.85;11.38;;;27.60;74.10;;;;;;5103800;28;20036;-94
2021/09/09 12:07:36;;;;;;;15.00;12.98;;;27.60;74.20;;;;;;5063958;28;20025;-87
2021/09/09 12:10:07;;;;;;;13.10;11.35;;;27.70;73.30;;;;;;5070459;28;20020;-89
2021/09/09 12:12:34;;;;;;;15.50;12.18;;;27.70;73.00;;;;;;5083352;28;20165;-88
2021/09/09 12:15:08;;;;;;;14.48;12.27;;;27.80;73.40;;;;;;5085476;28;20029;-84
2021/09/09 12:17:36;;;;;;;13.02;11.73;;;27.80;73.80;;;;;;5073582;28;20072;-84
2021/09/09 12:20:11;;;;;;;14.07;11.40;;;27.90;74.50;;;;;;5056173;28;20425;-83
2021/09/09 12:22:54;;;;;;;14.93;12.50;;;28.00;74.10;;;;;;5066521;28;20330;-84
2021/09/09 12:25:32;;;;;;;14.32;11.70;;;28.10;73.00;;;;;;5073525;28;20085;-84
2021/09/09 12:28:16;;;;;;;13.25;11.73;;;28.20;72.60;;;;;;5082385;28;20024;-84
2021/09/09 12:30:45;;;;;;;14.35;10.75;;;28.30;72.20;;;;;;5071721;28;20365;-84